sensor_id;sensor_type;location;lat;lon;timestamp;P1;durP1;ratioP1;P2;durP2;ratioP2
4921;SDS011;16625;53.624;10.106;2024-03-23T00:52:58;21.90;;;5.60;;
4921;SDS011;16625;53.624;10.106;2024-03-23T00:55:25;29.60;;;4.87;;
4921;SDS011;16625;53.624;10.106;2024-03-23T00:57:53;31.50;;;5.23;;
4921;SDS011;16625;53.624;10.106;2024-03-23T01:00:20;26.40;;;5.93;;
4921;SDS011;16625;53.624;10.106;2024-03-23T01:02:46;32.27;;;5.30;;
4921;SDS011;16625;53.624;10.106;2024-03-23T01:05:14;24.23;;;5.57;;
4921;SDS011;16625;53.624;10.106;2024-03-23T01:07:41;40.03;;;6.07;;
4921;SDS011;16625;53.624;10.106;2024-03-23T01:10:10;14.80;;;4.37;;
4921;SDS011;16625;53.624;10.106;2024-03-23T01:12:36;32.23;;;5.70;;
4921;SDS011;16625;53.624;10.106;2024-03-23T01:15:03;21.90;;;5.50;;
4921;SDS011;16625;53.624;10.106;2024-03-23T01:17:30;24.57;;;4.60;;
4921;SDS011;16625;53.624;10.106;2024-03-23T01:19:57;28.40;;;4.30;;
4921;SDS011;16625;53.624;10.106;2024-03-23T01:22:23;15.30;;;4.40;;
4921;SDS011;16625;53.624;10.106;2024-03-23T01:24:49;29.53;;;5.00;;
4921;SDS011;16625;53.624;10.106;2024-03-23T01:27:19;22.57;;;4.60;;
4921;SDS011;16625;53.624;10.106;2024-03-23T01:29:49;21.87;;;7.10;;
4921;SDS011;16625;53.624;10.106;2024-03-23T01:32:19;31.80;;;4.90;;
4921;SDS011;16625;53.624;10.106;2024-03-23T01:34:46;15.00;;;4.40;;
4921;SDS011;16625;53.624;10.106;2024-03-23T01:37:12;21.03;;;5.90;;
4921;SDS011;16625;53.624;10.106;2024-03-23T01:39:39;25.43;;;6.03;;
4921;SDS011;16625;53.624;10.106;2024-03-23T01:42:05;33.47;;;5.93;;
4921;SDS011;16625;53.624;10.106;2024-03-23T01:44:35;23.53;;;6.03;;
4921;SDS011;16625;53.624;10.106;2024-03-23T01:47:01;15.97;;;4.77;;
4921;SDS011;16625;53.624;10.106;2024-03-23T01:49:28;27.10;;;4.63;;
4921;SDS011;16625;53.624;10.106;2024-03-23T01:51:54;29.27;;;5.47;;
4921;SDS011;16625;53.624;10.106;2024-03-23T01:54:21;18.93;;;4.43;;
4921;SDS011;16625;53.624;10.106;2024-03-23T01:56:48;19.17;;;4.33;;
4921;SDS011;16625;53.624;10.106;2024-03-23T01:59:18;25.73;;;4.83;;
4921;SDS011;16625;53.624;10.106;2024-03-23T02:01:46;29.13;;;5.67;;
4921;SDS011;16625;53.624;10.106;2024-03-23T02:04:13;35.23;;;5.20;;
4921;SDS011;16625;53.624;10.106;2024-03-23T02:06:39;21.57;;;4.97;;
4921;SDS011;16625;53.624;10.106;2024-03-23T02:09:06;20.17;;;4.57;;
4921;SDS011;16625;53.624;10.106;2024-03-23T02:11:32;25.60;;;4.93;;
4921;SDS011;16625;53.624;10.106;2024-03-23T02:13:59;25.17;;;4.30;;
4921;SDS011;16625;53.624;10.106;2024-03-23T02:16:25;23.60;;;5.47;;
4921;SDS011;16625;53.624;10.106;2024-03-23T02:18:53;20.07;;;5.63;;
4921;SDS011;16625;53.624;10.106;2024-03-23T02:21:20;39.83;;;5.00;;
4921;SDS011;16625;53.624;10.106;2024-03-23T02:27:10;20.07;;;4.23;;
4921;SDS011;16625;53.624;10.106;2024-03-23T02:29:37;15.60;;;4.30;;
4921;SDS011;16625;53.624;10.106;2024-03-23T02:32:04;28.33;;;5.93;;
4921;SDS011;16625;53.624;10.106;2024-03-23T02:34:31;27.00;;;4.97;;
4921;SDS011;16625;53.624;10.106;2024-03-23T02:36:58;25.07;;;4.57;;
4921;SDS011;16625;53.624;10.106;2024-03-23T02:39:25;30.60;;;7.20;;
4921;SDS011;16625;53.624;10.106;2024-03-23T02:41:52;30.13;;;5.90;;
4921;SDS011;16625;53.624;10.106;2024-03-23T02:44:19;18.40;;;6.10;;
4921;SDS011;16625;53.624;10.106;2024-03-23T02:46:46;25.10;;;4.90;;
4921;SDS011;16625;53.624;10.106;2024-03-23T02:49:12;19.37;;;5.50;;
4921;SDS011;16625;53.624;10.106;2024-03-23T02:51:40;28.50;;;5.13;;
4921;SDS011;16625;53.624;10.106;2024-03-23T02:54:06;29.77;;;5.97;;
4921;SDS011;16625;53.624;10.106;2024-03-23T02:56:33;26.53;;;5.40;;
4921;SDS011;16625;53.624;10.106;2024-03-23T02:58:59;24.80;;;5.30;;
4921;SDS011;16625;53.624;10.106;2024-03-23T03:01:29;26.10;;;4.70;;
4921;SDS011;16625;53.624;10.106;2024-03-23T03:03:56;28.37;;;5.30;;
4921;SDS011;16625;53.624;10.106;2024-03-23T03:06:24;21.87;;;5.07;;
4921;SDS011;16625;53.624;10.106;2024-03-23T03:08:49;35.20;;;5.27;;
4921;SDS011;16625;53.624;10.106;2024-03-23T03:11:23;38.90;;;6.30;;
4921;SDS011;16625;53.624;10.106;2024-03-23T03:13:51;22.37;;;5.70;;
4921;SDS011;16625;53.624;10.106;2024-03-23T03:16:18;24.60;;;5.63;;
4921;SDS011;16625;53.624;10.106;2024-03-23T03:18:48;24.70;;;5.33;;
4921;SDS011;16625;53.624;10.106;2024-03-23T03:21:15;28.23;;;5.17;;
4921;SDS011;16625;53.624;10.106;2024-03-23T03:23:41;36.57;;;6.70;;
4921;SDS011;16625;53.624;10.106;2024-03-23T03:26:09;18.47;;;5.40;;
4921;SDS011;16625;53.624;10.106;2024-03-23T03:28:35;33.97;;;6.87;;
4921;SDS011;16625;53.624;10.106;2024-03-23T03:31:02;34.57;;;5.10;;
4921;SDS011;16625;53.624;10.106;2024-03-23T03:33:32;23.97;;;4.83;;
4921;SDS011;16625;53.624;10.106;2024-03-23T03:36:01;15.60;;;4.80;;
4921;SDS011;16625;53.624;10.106;2024-03-23T03:38:27;30.07;;;6.70;;
4921;SDS011;16625;53.624;10.106;2024-03-23T03:40:54;31.77;;;6.17;;
4921;SDS011;16625;53.624;10.106;2024-03-23T03:43:20;34.93;;;5.30;;
4921;SDS011;16625;53.624;10.106;2024-03-23T03:45:51;21.63;;;4.87;;
4921;SDS011;16625;53.624;10.106;2024-03-23T03:48:17;31.50;;;6.33;;
4921;SDS011;16625;53.624;10.106;2024-03-23T03:50:44;31.87;;;6.53;;
4921;SDS011;16625;53.624;10.106;2024-03-23T03:53:13;17.53;;;4.47;;
4921;SDS011;16625;53.624;10.106;2024-03-23T03:55:41;18.93;;;5.07;;
4921;SDS011;16625;53.624;10.106;2024-03-23T03:58:07;26.00;;;6.70;;
4921;SDS011;16625;53.624;10.106;2024-03-23T04:00:34;31.87;;;5.00;;
4921;SDS011;16625;53.624;10.106;2024-03-23T04:03:00;18.93;;;4.80;;
4921;SDS011;16625;53.624;10.106;2024-03-23T04:05:28;32.37;;;5.30;;
4921;SDS011;16625;53.624;10.106;2024-03-23T04:07:54;22.53;;;4.70;;
4921;SDS011;16625;53.624;10.106;2024-03-23T04:10:24;22.43;;;4.80;;
4921;SDS011;16625;53.624;10.106;2024-03-23T04:12:51;24.43;;;5.07;;
4921;SDS011;16625;53.624;10.106;2024-03-23T04:15:19;30.43;;;5.80;;
4921;SDS011;16625;53.624;10.106;2024-03-23T04:17:45;25.77;;;5.60;;
4921;SDS011;16625;53.624;10.106;2024-03-23T04:20:12;26.73;;;5.80;;
4921;SDS011;16625;53.624;10.106;2024-03-23T04:22:42;21.20;;;4.87;;
4921;SDS011;16625;53.624;10.106;2024-03-23T04:25:08;28.60;;;4.97;;
4921;SDS011;16625;53.624;10.106;2024-03-23T04:27:37;14.73;;;5.23;;
4921;SDS011;16625;53.624;10.106;2024-03-23T04:30:06;19.77;;;3.87;;
4921;SDS011;16625;53.624;10.106;2024-03-23T04:32:36;27.47;;;5.13;;
4921;SDS011;16625;53.624;10.106;2024-03-23T04:35:07;24.10;;;4.63;;
4921;SDS011;16625;53.624;10.106;2024-03-23T04:37:34;15.40;;;4.37;;
4921;SDS011;16625;53.624;10.106;2024-03-23T04:40:02;17.40;;;4.17;;
4921;SDS011;16625;53.624;10.106;2024-03-23T04:42:30;35.93;;;5.40;;
4921;SDS011;16625;53.624;10.106;2024-03-23T04:44:59;16.43;;;4.87;;
4921;SDS011;16625;53.624;10.106;2024-03-23T04:47:27;18.63;;;3.87;;
4921;SDS011;16625;53.624;10.106;2024-03-23T04:49:54;28.90;;;4.90;;
4921;SDS011;16625;53.624;10.106;2024-03-23T04:52:21;20.87;;;4.60;;
4921;SDS011;16625;53.624;10.106;2024-03-23T04:54:49;19.17;;;4.47;;
4921;SDS011;16625;53.624;10.106;2024-03-23T04:57:16;23.87;;;4.77;;
4921;SDS011;16625;53.624;10.106;2024-03-23T04:59:42;18.20;;;6.43;;
4921;SDS011;16625;53.624;10.106;2024-03-23T05:02:11;18.87;;;5.53;;
4921;SDS011;16625;53.624;10.106;2024-03-23T05:04:38;20.63;;;5.13;;
4921;SDS011;16625;53.624;10.106;2024-03-23T05:07:05;31.93;;;4.77;;
4921;SDS011;16625;53.624;10.106;2024-03-23T05:09:31;22.23;;;4.83;;
4921;SDS011;16625;53.624;10.106;2024-03-23T05:11:58;31.43;;;5.27;;
4921;SDS011;16625;53.624;10.106;2024-03-23T05:14:25;23.47;;;5.40;;
4921;SDS011;16625;53.624;10.106;2024-03-23T05:16:52;19.20;;;5.10;;
4921;SDS011;16625;53.624;10.106;2024-03-23T05:19:19;30.53;;;6.00;;
4921;SDS011;16625;53.624;10.106;2024-03-23T05:21:49;23.10;;;5.60;;
4921;SDS011;16625;53.624;10.106;2024-03-23T05:24:15;23.70;;;6.90;;
4921;SDS011;16625;53.624;10.106;2024-03-23T05:26:42;27.13;;;5.23;;
4921;SDS011;16625;53.624;10.106;2024-03-23T05:29:08;20.80;;;5.60;;
4921;SDS011;16625;53.624;10.106;2024-03-23T05:31:38;23.53;;;4.60;;
4921;SDS011;16625;53.624;10.106;2024-03-23T05:34:06;20.40;;;4.87;;
4921;SDS011;16625;53.624;10.106;2024-03-23T05:36:37;13.10;;;4.80;;
4921;SDS011;16625;53.624;10.106;2024-03-23T05:39:06;16.73;;;4.20;;
4921;SDS011;16625;53.624;10.106;2024-03-23T05:41:33;13.20;;;4.27;;
4921;SDS011;16625;53.624;10.106;2024-03-23T05:44:01;22.27;;;5.93;;
4921;SDS011;16625;53.624;10.106;2024-03-23T05:46:28;36.10;;;5.43;;
4921;SDS011;16625;53.624;10.106;2024-03-23T05:48:56;28.73;;;5.40;;
4921;SDS011;16625;53.624;10.106;2024-03-23T05:51:27;27.50;;;5.70;;
4921;SDS011;16625;53.624;10.106;2024-03-23T05:53:56;24.37;;;5.20;;
4921;SDS011;16625;53.624;10.106;2024-03-23T05:56:23;17.90;;;4.10;;
4921;SDS011;16625;53.624;10.106;2024-03-23T05:58:51;11.83;;;4.30;;
4921;SDS011;16625;53.624;10.106;2024-03-23T06:01:18;40.00;;;7.10;;
4921;SDS011;16625;53.624;10.106;2024-03-23T06:03:44;21.93;;;3.70;;
4921;SDS011;16625;53.624;10.106;2024-03-23T06:06:11;26.97;;;4.37;;
4921;SDS011;16625;53.624;10.106;2024-03-23T06:08:39;30.63;;;4.63;;
4921;SDS011;16625;53.624;10.106;2024-03-23T06:11:12;22.83;;;5.10;;
4921;SDS011;16625;53.624;10.106;2024-03-23T06:13:40;15.80;;;4.80;;
4921;SDS011;16625;53.624;10.106;2024-03-23T06:16:09;29.43;;;5.80;;
4921;SDS011;16625;53.624;10.106;2024-03-23T06:18:35;23.20;;;4.40;;
4921;SDS011;16625;53.624;10.106;2024-03-23T06:21:02;28.53;;;5.60;;
4921;SDS011;16625;53.624;10.106;2024-03-23T06:23:29;22.30;;;5.60;;
4921;SDS011;16625;53.624;10.106;2024-03-23T06:25:57;26.93;;;5.80;;
4921;SDS011;16625;53.624;10.106;2024-03-23T06:28:25;35.60;;;6.63;;
4921;SDS011;16625;53.624;10.106;2024-03-23T06:30:52;22.83;;;4.80;;
4921;SDS011;16625;53.624;10.106;2024-03-23T06:33:18;24.60;;;5.67;;
4921;SDS011;16625;53.624;10.106;2024-03-23T06:35:49;27.33;;;5.67;;
4921;SDS011;16625;53.624;10.106;2024-03-23T06:38:15;25.20;;;6.90;;
4921;SDS011;16625;53.624;10.106;2024-03-23T06:40:42;23.63;;;5.70;;
4921;SDS011;16625;53.624;10.106;2024-03-23T06:43:12;15.50;;;5.10;;
4921;SDS011;16625;53.624;10.106;2024-03-23T06:45:41;22.93;;;5.60;;
4921;SDS011;16625;53.624;10.106;2024-03-23T06:48:07;27.13;;;6.70;;
4921;SDS011;16625;53.624;10.106;2024-03-23T06:50:34;24.63;;;5.67;;
4921;SDS011;16625;53.624;10.106;2024-03-23T06:53:00;21.23;;;6.27;;
4921;SDS011;16625;53.624;10.106;2024-03-23T06:55:31;20.73;;;4.10;;
4921;SDS011;16625;53.624;10.106;2024-03-23T06:57:58;16.77;;;5.10;;
4921;SDS011;16625;53.624;10.106;2024-03-23T07:00:25;31.37;;;6.70;;
4921;SDS011;16625;53.624;10.106;2024-03-23T07:02:56;23.07;;;6.00;;
4921;SDS011;16625;53.624;10.106;2024-03-23T07:05:23;18.40;;;5.10;;
4921;SDS011;16625;53.624;10.106;2024-03-23T07:07:52;33.27;;;6.43;;
4921;SDS011;16625;53.624;10.106;2024-03-23T07:10:20;36.83;;;5.97;;
4921;SDS011;16625;53.624;10.106;2024-03-23T07:12:46;32.67;;;6.87;;
4921;SDS011;16625;53.624;10.106;2024-03-23T07:15:13;27.00;;;4.83;;
4921;SDS011;16625;53.624;10.106;2024-03-23T07:17:41;20.73;;;5.30;;
4921;SDS011;16625;53.624;10.106;2024-03-23T07:20:12;18.63;;;4.20;;
4921;SDS011;16625;53.624;10.106;2024-03-23T07:22:38;14.40;;;4.03;;
4921;SDS011;16625;53.624;10.106;2024-03-23T07:25:06;30.77;;;5.67;;
4921;SDS011;16625;53.624;10.106;2024-03-23T07:27:33;26.00;;;4.13;;
4921;SDS011;16625;53.624;10.106;2024-03-23T07:30:01;21.90;;;4.40;;
4921;SDS011;16625;53.624;10.106;2024-03-23T07:32:27;19.00;;;4.50;;
4921;SDS011;16625;53.624;10.106;2024-03-23T07:34:56;36.27;;;6.53;;
4921;SDS011;16625;53.624;10.106;2024-03-23T07:37:28;17.47;;;4.50;;
4921;SDS011;16625;53.624;10.106;2024-03-23T07:39:55;9.27;;;3.47;;
4921;SDS011;16625;53.624;10.106;2024-03-23T07:42:31;21.73;;;5.20;;
4921;SDS011;16625;53.624;10.106;2024-03-23T07:44:57;17.30;;;4.40;;
4921;SDS011;16625;53.624;10.106;2024-03-23T07:47:25;24.80;;;5.87;;
4921;SDS011;16625;53.624;10.106;2024-03-23T07:49:51;14.70;;;5.53;;
4921;SDS011;16625;53.624;10.106;2024-03-23T07:52:19;9.77;;;3.60;;
4921;SDS011;16625;53.624;10.106;2024-03-23T07:54:50;27.33;;;4.83;;
4921;SDS011;16625;53.624;10.106;2024-03-23T07:57:18;18.13;;;4.70;;
4921;SDS011;16625;53.624;10.106;2024-03-23T07:59:44;14.50;;;4.23;;
4921;SDS011;16625;53.624;10.106;2024-03-23T08:02:11;22.00;;;4.80;;
4921;SDS011;16625;53.624;10.106;2024-03-23T08:04:37;18.10;;;4.37;;
4921;SDS011;16625;53.624;10.106;2024-03-23T08:07:05;26.13;;;5.20;;
4921;SDS011;16625;53.624;10.106;2024-03-23T08:09:31;21.10;;;4.63;;
4921;SDS011;16625;53.624;10.106;2024-03-23T08:11:59;25.57;;;4.17;;
4921;SDS011;16625;53.624;10.106;2024-03-23T08:14:25;22.83;;;6.50;;
4921;SDS011;16625;53.624;10.106;2024-03-23T08:16:53;17.83;;;3.60;;
4921;SDS011;16625;53.624;10.106;2024-03-23T08:19:19;23.00;;;5.57;;
4921;SDS011;16625;53.624;10.106;2024-03-23T08:21:46;25.40;;;5.17;;
4921;SDS011;16625;53.624;10.106;2024-03-23T08:24:13;11.63;;;3.40;;
4921;SDS011;16625;53.624;10.106;2024-03-23T08:26:41;19.27;;;5.43;;
4921;SDS011;16625;53.624;10.106;2024-03-23T08:29:09;16.43;;;4.20;;
4921;SDS011;16625;53.624;10.106;2024-03-23T08:31:38;13.13;;;3.83;;
4921;SDS011;16625;53.624;10.106;2024-03-23T08:34:04;16.53;;;5.00;;
4921;SDS011;16625;53.624;10.106;2024-03-23T08:36:31;14.03;;;3.30;;
4921;SDS011;16625;53.624;10.106;2024-03-23T08:38:57;28.17;;;5.37;;
4921;SDS011;16625;53.624;10.106;2024-03-23T08:41:23;16.80;;;3.10;;
4921;SDS011;16625;53.624;10.106;2024-03-23T08:43:50;12.57;;;3.70;;
4921;SDS011;16625;53.624;10.106;2024-03-23T08:46:19;17.40;;;3.87;;
4921;SDS011;16625;53.624;10.106;2024-03-23T08:48:45;20.10;;;4.93;;
4921;SDS011;16625;53.624;10.106;2024-03-23T08:51:14;17.90;;;4.97;;
4921;SDS011;16625;53.624;10.106;2024-03-23T08:53:41;14.20;;;3.37;;
4921;SDS011;16625;53.624;10.106;2024-03-23T08:56:09;15.27;;;3.70;;
4921;SDS011;16625;53.624;10.106;2024-03-23T08:58:35;24.70;;;4.67;;
4921;SDS011;16625;53.624;10.106;2024-03-23T09:01:04;15.73;;;3.90;;
4921;SDS011;16625;53.624;10.106;2024-03-23T09:03:33;16.37;;;4.27;;
4921;SDS011;16625;53.624;10.106;2024-03-23T09:06:00;9.83;;;3.70;;
4921;SDS011;16625;53.624;10.106;2024-03-23T09:08:26;17.23;;;4.67;;
4921;SDS011;16625;53.624;10.106;2024-03-23T09:10:53;14.40;;;4.47;;
4921;SDS011;16625;53.624;10.106;2024-03-23T09:13:19;16.33;;;3.43;;
4921;SDS011;16625;53.624;10.106;2024-03-23T09:15:47;9.00;;;2.97;;
4921;SDS011;16625;53.624;10.106;2024-03-23T09:18:13;6.90;;;2.87;;
4921;SDS011;16625;53.624;10.106;2024-03-23T09:20:42;10.43;;;3.57;;
4921;SDS011;16625;53.624;10.106;2024-03-23T09:23:09;13.67;;;3.90;;
4921;SDS011;16625;53.624;10.106;2024-03-23T09:25:36;16.90;;;3.93;;
4921;SDS011;16625;53.624;10.106;2024-03-23T09:28:03;10.03;;;2.90;;
4921;SDS011;16625;53.624;10.106;2024-03-23T09:30:31;12.10;;;3.67;;
4921;SDS011;16625;53.624;10.106;2024-03-23T09:32:57;12.73;;;2.80;;
4921;SDS011;16625;53.624;10.106;2024-03-23T09:35:24;8.30;;;3.00;;
4921;SDS011;16625;53.624;10.106;2024-03-23T09:37:52;14.70;;;3.70;;
4921;SDS011;16625;53.624;10.106;2024-03-23T09:40:18;4.77;;;2.13;;
4921;SDS011;16625;53.624;10.106;2024-03-23T09:42:49;12.53;;;3.03;;
4921;SDS011;16625;53.624;10.106;2024-03-23T09:45:18;13.67;;;3.33;;
4921;SDS011;16625;53.624;10.106;2024-03-23T09:47:47;17.77;;;3.80;;
4921;SDS011;16625;53.624;10.106;2024-03-23T09:50:15;16.47;;;3.17;;
4921;SDS011;16625;53.624;10.106;2024-03-23T09:52:41;10.43;;;3.60;;
4921;SDS011;16625;53.624;10.106;2024-03-23T09:55:10;6.80;;;3.60;;
4921;SDS011;16625;53.624;10.106;2024-03-23T09:57:36;6.90;;;2.00;;
4921;SDS011;16625;53.624;10.106;2024-03-23T10:00:03;17.20;;;2.83;;
4921;SDS011;16625;53.624;10.106;2024-03-23T10:02:30;12.60;;;3.40;;
4921;SDS011;16625;53.624;10.106;2024-03-23T10:04:56;12.50;;;3.77;;
4921;SDS011;16625;53.624;10.106;2024-03-23T10:07:22;13.03;;;3.77;;
4921;SDS011;16625;53.624;10.106;2024-03-23T10:09:49;5.80;;;2.87;;
4921;SDS011;16625;53.624;10.106;2024-03-23T10:12:18;7.80;;;2.50;;
4921;SDS011;16625;53.624;10.106;2024-03-23T10:14:45;11.00;;;3.20;;
4921;SDS011;16625;53.624;10.106;2024-03-23T10:17:12;9.40;;;3.10;;
4921;SDS011;16625;53.624;10.106;2024-03-23T10:19:42;9.23;;;3.40;;
4921;SDS011;16625;53.624;10.106;2024-03-23T10:22:09;11.10;;;3.10;;
4921;SDS011;16625;53.624;10.106;2024-03-23T10:24:39;14.30;;;3.57;;
4921;SDS011;16625;53.624;10.106;2024-03-23T10:27:05;14.33;;;3.20;;
4921;SDS011;16625;53.624;10.106;2024-03-23T10:29:33;8.50;;;2.57;;
4921;SDS011;16625;53.624;10.106;2024-03-23T10:32:08;15.00;;;3.50;;
4921;SDS011;16625;53.624;10.106;2024-03-23T10:34:36;11.37;;;3.47;;
4921;SDS011;16625;53.624;10.106;2024-03-23T10:37:02;7.23;;;2.97;;
4921;SDS011;16625;53.624;10.106;2024-03-23T10:39:33;13.03;;;3.23;;
4921;SDS011;16625;53.624;10.106;2024-03-23T10:42:01;15.30;;;3.90;;
4921;SDS011;16625;53.624;10.106;2024-03-23T10:44:30;13.20;;;3.37;;
4921;SDS011;16625;53.624;10.106;2024-03-23T10:46:58;9.23;;;2.93;;
4921;SDS011;16625;53.624;10.106;2024-03-23T10:49:26;15.60;;;3.50;;
4921;SDS011;16625;53.624;10.106;2024-03-23T10:51:55;14.00;;;3.20;;
4921;SDS011;16625;53.624;10.106;2024-03-23T10:54:26;16.13;;;2.40;;
4921;SDS011;16625;53.624;10.106;2024-03-23T10:56:53;11.23;;;3.40;;
4921;SDS011;16625;53.624;10.106;2024-03-23T10:59:23;6.50;;;2.57;;
4921;SDS011;16625;53.624;10.106;2024-03-23T11:01:53;10.17;;;3.60;;
4921;SDS011;16625;53.624;10.106;2024-03-23T11:04:30;6.93;;;3.03;;
4921;SDS011;16625;53.624;10.106;2024-03-23T11:06:57;8.10;;;2.20;;
4921;SDS011;16625;53.624;10.106;2024-03-23T11:09:38;8.13;;;3.03;;
4921;SDS011;16625;53.624;10.106;2024-03-23T11:12:10;14.23;;;4.77;;
4921;SDS011;16625;53.624;10.106;2024-03-23T11:14:52;15.50;;;2.63;;
4921;SDS011;16625;53.624;10.106;2024-03-23T11:17:19;5.93;;;1.80;;
4921;SDS011;16625;53.624;10.106;2024-03-23T11:19:53;7.10;;;2.43;;
4921;SDS011;16625;53.624;10.106;2024-03-23T11:22:40;9.93;;;2.70;;
4921;SDS011;16625;53.624;10.106;2024-03-23T11:25:15;10.90;;;2.37;;
4921;SDS011;16625;53.624;10.106;2024-03-23T11:27:43;10.67;;;3.57;;
4921;SDS011;16625;53.624;10.106;2024-03-23T11:30:11;5.30;;;2.23;;
4921;SDS011;16625;53.624;10.106;2024-03-23T11:32:41;6.80;;;2.10;;
4921;SDS011;16625;53.624;10.106;2024-03-23T11:35:11;7.30;;;2.50;;
4921;SDS011;16625;53.624;10.106;2024-03-23T11:38:00;13.37;;;2.07;;
4921;SDS011;16625;53.624;10.106;2024-03-23T11:40:28;6.97;;;2.67;;
4921;SDS011;16625;53.624;10.106;2024-03-23T11:42:55;20.90;;;2.37;;
4921;SDS011;16625;53.624;10.106;2024-03-23T11:45:22;8.23;;;2.67;;
4921;SDS011;16625;53.624;10.106;2024-03-23T11:47:48;5.30;;;2.17;;
4921;SDS011;16625;53.624;10.106;2024-03-23T11:50:29;5.00;;;1.80;;
4921;SDS011;16625;53.624;10.106;2024-03-23T11:53:05;4.73;;;1.87;;
4921;SDS011;16625;53.624;10.106;2024-03-23T11:55:38;8.43;;;2.50;;
4921;SDS011;16625;53.624;10.106;2024-03-23T11:58:08;6.20;;;1.90;;
4921;SDS011;16625;53.624;10.106;2024-03-23T12:00:35;7.23;;;2.10;;
4921;SDS011;16625;53.624;10.106;2024-03-23T12:03:02;7.30;;;2.20;;
4921;SDS011;16625;53.624;10.106;2024-03-23T12:05:31;5.13;;;2.17;;
4921;SDS011;16625;53.624;10.106;2024-03-23T12:10:44;5.10;;;1.83;;
4921;SDS011;16625;53.624;10.106;2024-03-23T12:13:15;2.43;;;1.73;;
4921;SDS011;16625;53.624;10.106;2024-03-23T12:15:43;2.97;;;1.60;;
4921;SDS011;16625;53.624;10.106;2024-03-23T12:18:10;4.30;;;1.80;;
4921;SDS011;16625;53.624;10.106;2024-03-23T12:20:39;2.73;;;1.60;;
4921;SDS011;16625;53.624;10.106;2024-03-23T12:23:05;2.27;;;1.93;;
4921;SDS011;16625;53.624;10.106;2024-03-23T12:25:34;6.70;;;1.80;;
4921;SDS011;16625;53.624;10.106;2024-03-23T12:28:01;4.33;;;1.63;;
4921;SDS011;16625;53.624;10.106;2024-03-23T12:30:31;2.30;;;1.67;;
4921;SDS011;16625;53.624;10.106;2024-03-23T12:32:57;6.40;;;1.90;;
4921;SDS011;16625;53.624;10.106;2024-03-23T12:35:24;7.57;;;2.80;;
4921;SDS011;16625;53.624;10.106;2024-03-23T12:37:52;13.87;;;2.20;;
4921;SDS011;16625;53.624;10.106;2024-03-23T12:40:19;2.87;;;1.80;;
4921;SDS011;16625;53.624;10.106;2024-03-23T12:42:45;4.40;;;1.97;;
4921;SDS011;16625;53.624;10.106;2024-03-23T12:45:12;7.57;;;2.23;;
4921;SDS011;16625;53.624;10.106;2024-03-23T12:47:38;6.93;;;2.40;;
4921;SDS011;16625;53.624;10.106;2024-03-23T12:50:05;4.20;;;1.70;;
4921;SDS011;16625;53.624;10.106;2024-03-23T12:52:32;2.20;;;1.90;;
4921;SDS011;16625;53.624;10.106;2024-03-23T12:55:03;2.40;;;1.87;;
4921;SDS011;16625;53.624;10.106;2024-03-23T12:57:30;2.53;;;1.90;;
4921;SDS011;16625;53.624;10.106;2024-03-23T12:59:58;2.20;;;1.70;;
4921;SDS011;16625;53.624;10.106;2024-03-23T13:02:25;4.47;;;2.17;;
4921;SDS011;16625;53.624;10.106;2024-03-23T13:04:52;1.73;;;1.50;;
4921;SDS011;16625;53.624;10.106;2024-03-23T13:07:19;2.93;;;1.67;;
4921;SDS011;16625;53.624;10.106;2024-03-23T13:09:47;4.33;;;1.93;;
4921;SDS011;16625;53.624;10.106;2024-03-23T13:12:16;1.70;;;1.57;;
4921;SDS011;16625;53.624;10.106;2024-03-23T13:14:45;2.30;;;1.60;;
4921;SDS011;16625;53.624;10.106;2024-03-23T13:17:11;2.27;;;1.67;;
4921;SDS011;16625;53.624;10.106;2024-03-23T13:19:39;2.50;;;1.70;;
4921;SDS011;16625;53.624;10.106;2024-03-23T13:22:05;2.00;;;1.50;;
4921;SDS011;16625;53.624;10.106;2024-03-23T13:24:32;2.90;;;1.87;;
4921;SDS011;16625;53.624;10.106;2024-03-23T13:26:57;1.60;;;1.40;;
4921;SDS011;16625;53.624;10.106;2024-03-23T13:29:26;3.13;;;1.60;;
4921;SDS011;16625;53.624;10.106;2024-03-23T13:31:53;2.33;;;1.67;;
4921;SDS011;16625;53.624;10.106;2024-03-23T13:34:19;4.60;;;2.00;;
4921;SDS011;16625;53.624;10.106;2024-03-23T13:36:46;3.40;;;1.63;;
4921;SDS011;16625;53.624;10.106;2024-03-23T13:39:12;2.73;;;1.80;;
4921;SDS011;16625;53.624;10.106;2024-03-23T13:41:41;3.17;;;1.80;;
4921;SDS011;16625;53.624;10.106;2024-03-23T13:44:09;2.17;;;1.50;;
4921;SDS011;16625;53.624;10.106;2024-03-23T13:46:39;6.30;;;1.70;;
4921;SDS011;16625;53.624;10.106;2024-03-23T13:49:08;11.97;;;4.20;;
4921;SDS011;16625;53.624;10.106;2024-03-23T13:51:51;4.93;;;2.07;;
4921;SDS011;16625;53.624;10.106;2024-03-23T13:54:16;3.50;;;2.13;;
4921;SDS011;16625;53.624;10.106;2024-03-23T13:56:43;6.07;;;2.50;;
4921;SDS011;16625;53.624;10.106;2024-03-23T13:59:09;3.50;;;2.17;;
4921;SDS011;16625;53.624;10.106;2024-03-23T14:01:37;4.57;;;2.30;;
4921;SDS011;16625;53.624;10.106;2024-03-23T14:04:04;5.50;;;1.93;;
4921;SDS011;16625;53.624;10.106;2024-03-23T14:06:31;12.63;;;3.47;;
4921;SDS011;16625;53.624;10.106;2024-03-23T14:08:57;4.10;;;2.00;;
4921;SDS011;16625;53.624;10.106;2024-03-23T14:11:24;2.13;;;1.57;;
4921;SDS011;16625;53.624;10.106;2024-03-23T14:13:51;3.53;;;2.13;;
4921;SDS011;16625;53.624;10.106;2024-03-23T14:16:19;4.70;;;1.93;;
4921;SDS011;16625;53.624;10.106;2024-03-23T14:18:47;8.13;;;2.13;;
4921;SDS011;16625;53.624;10.106;2024-03-23T14:21:14;4.87;;;1.90;;
4921;SDS011;16625;53.624;10.106;2024-03-23T14:23:40;6.40;;;2.80;;
4921;SDS011;16625;53.624;10.106;2024-03-23T14:26:07;6.47;;;2.30;;
4921;SDS011;16625;53.624;10.106;2024-03-23T14:28:33;4.87;;;1.80;;
4921;SDS011;16625;53.624;10.106;2024-03-23T14:31:00;3.27;;;2.30;;
4921;SDS011;16625;53.624;10.106;2024-03-23T14:33:26;6.20;;;2.60;;
4921;SDS011;16625;53.624;10.106;2024-03-23T14:35:55;3.17;;;1.70;;
4921;SDS011;16625;53.624;10.106;2024-03-23T14:38:22;4.07;;;1.33;;
4921;SDS011;16625;53.624;10.106;2024-03-23T14:40:49;4.63;;;2.20;;
4921;SDS011;16625;53.624;10.106;2024-03-23T14:43:16;4.00;;;2.13;;
4921;SDS011;16625;53.624;10.106;2024-03-23T14:45:49;4.63;;;1.83;;
4921;SDS011;16625;53.624;10.106;2024-03-23T14:48:31;6.00;;;2.07;;
4921;SDS011;16625;53.624;10.106;2024-03-23T14:51:04;4.47;;;2.40;;
4921;SDS011;16625;53.624;10.106;2024-03-23T14:53:30;8.90;;;2.03;;
4921;SDS011;16625;53.624;10.106;2024-03-23T14:55:58;4.50;;;2.43;;
4921;SDS011;16625;53.624;10.106;2024-03-23T14:58:26;5.93;;;2.10;;
4921;SDS011;16625;53.624;10.106;2024-03-23T15:00:53;4.40;;;2.33;;
4921;SDS011;16625;53.624;10.106;2024-03-23T15:03:25;3.80;;;2.87;;
4921;SDS011;16625;53.624;10.106;2024-03-23T15:05:54;5.03;;;2.00;;
4921;SDS011;16625;53.624;10.106;2024-03-23T15:08:22;2.30;;;1.57;;
4921;SDS011;16625;53.624;10.106;2024-03-23T15:10:49;8.37;;;2.40;;
4921;SDS011;16625;53.624;10.106;2024-03-23T15:13:15;5.87;;;2.00;;
4921;SDS011;16625;53.624;10.106;2024-03-23T15:15:44;10.90;;;2.30;;
4921;SDS011;16625;53.624;10.106;2024-03-23T15:18:10;2.80;;;2.00;;
4921;SDS011;16625;53.624;10.106;2024-03-23T15:20:39;4.60;;;1.67;;
4921;SDS011;16625;53.624;10.106;2024-03-23T15:23:06;6.80;;;2.37;;
4921;SDS011;16625;53.624;10.106;2024-03-23T15:25:34;3.50;;;1.50;;
4921;SDS011;16625;53.624;10.106;2024-03-23T15:28:00;2.70;;;1.73;;
4921;SDS011;16625;53.624;10.106;2024-03-23T15:30:29;4.03;;;2.30;;
4921;SDS011;16625;53.624;10.106;2024-03-23T15:32:55;3.60;;;1.63;;
4921;SDS011;16625;53.624;10.106;2024-03-23T15:35:22;2.77;;;2.03;;
4921;SDS011;16625;53.624;10.106;2024-03-23T15:37:48;2.93;;;1.70;;
4921;SDS011;16625;53.624;10.106;2024-03-23T15:40:16;4.23;;;1.80;;